createdAt,value
2023-05-08T00:02:57.383Z,9.7
2023-05-08T00:05:59.255Z,7.6
2023-05-08T00:09:01.260Z,9.2
2023-05-08T00:12:03.384Z,9.4
2023-05-08T00:15:05.180Z,11.4
2023-05-08T00:18:07.264Z,8
2023-05-08T00:21:09.113Z,8.8
2023-05-08T00:24:11.062Z,9
2023-05-08T00:27:13.015Z,7.5
2023-05-08T00:30:15.038Z,8.2
2023-05-08T00:33:16.960Z,8
2023-05-08T00:36:18.923Z,8.2
2023-05-08T00:39:20.895Z,8
2023-05-08T00:42:22.823Z,8.2
2023-05-08T00:45:24.848Z,9.6
2023-05-08T00:48:26.816Z,8.6
2023-05-08T00:51:28.816Z,9.2
2023-05-08T00:54:30.801Z,10.6
2023-05-08T00:57:32.775Z,8.5
2023-05-08T01:00:34.734Z,9
2023-05-08T01:03:36.752Z,8.5
2023-05-08T01:06:38.622Z,9.7
2023-05-08T01:09:40.584Z,8.3
2023-05-08T01:12:42.566Z,9
2023-05-08T01:15:44.550Z,9.3
2023-05-08T01:18:46.510Z,8.4
2023-05-08T01:21:48.447Z,8.8
2023-05-08T01:24:50.412Z,11.1
2023-05-08T01:27:52.406Z,8.3
2023-05-08T01:30:54.332Z,8.4
2023-05-08T01:33:56.348Z,8.1
2023-05-08T01:36:58.295Z,8.8
2023-05-08T01:40:00.197Z,8.9
2023-05-08T01:43:02.182Z,7.2
2023-05-08T01:46:04.167Z,8.4
2023-05-08T01:49:06.142Z,7.9
2023-05-08T01:52:08.079Z,8.1
2023-05-08T01:55:10.057Z,8.1
2023-05-08T01:58:12.003Z,7.5
2023-05-08T02:01:14.008Z,8
2023-05-08T02:04:15.928Z,8.4
2023-05-08T02:07:17.906Z,8.6
2023-05-08T02:10:19.852Z,10.1
2023-05-08T02:13:21.856Z,7.8
2023-05-08T02:16:23.780Z,8.6
2023-05-08T02:19:25.765Z,7.6
2023-05-08T02:22:27.707Z,9.8
2023-05-08T02:25:29.678Z,9.9
2023-05-08T02:28:31.643Z,8.6
2023-05-08T02:31:33.663Z,7.6
2023-05-08T02:34:35.592Z,8.2
2023-05-08T02:37:37.612Z,10.9
2023-05-08T02:40:39.511Z,8.7
2023-05-08T02:43:41.492Z,8.2
2023-05-08T02:46:43.416Z,7.4
2023-05-08T02:49:45.370Z,7.5
2023-05-08T02:52:47.337Z,8.4
2023-05-08T02:55:49.349Z,7.2
2023-05-08T02:58:51.320Z,7.8
2023-05-08T03:01:53.297Z,7.4
2023-05-08T03:04:55.231Z,9.3
2023-05-08T03:07:57.330Z,8.2
2023-05-08T03:10:59.167Z,8
2023-05-08T03:14:01.104Z,8.8
2023-05-08T03:17:03.082Z,9
2023-05-08T03:20:05.062Z,7.4
2023-05-08T03:23:07.022Z,8.4
2023-05-08T03:26:08.984Z,8
2023-05-08T03:29:10.960Z,9.3
2023-05-08T03:32:12.915Z,9.7
2023-05-08T03:35:14.850Z,9.9
2023-05-08T03:38:16.822Z,8.6
2023-05-08T03:41:18.780Z,9.9
2023-05-08T03:44:20.754Z,9.1
2023-05-08T03:47:22.791Z,10.2
2023-05-08T03:50:24.694Z,9
2023-05-08T03:53:26.657Z,8.6
2023-05-08T03:56:28.615Z,9.3
2023-05-08T03:59:30.571Z,9.8
2023-05-08T04:02:32.662Z,8.1
2023-05-08T04:05:34.569Z,9.2
2023-05-08T04:08:36.513Z,8.4
2023-05-08T04:11:38.478Z,10.1
2023-05-08T04:14:40.422Z,9.4
2023-05-08T04:17:42.387Z,9.9
2023-05-08T04:20:45.022Z,8.7
2023-05-08T04:23:46.367Z,10
2023-05-08T04:26:48.282Z,10.9
2023-05-08T04:29:50.246Z,9.1
2023-05-08T04:32:52.226Z,9.7
2023-05-08T04:35:54.178Z,8.5
2023-05-08T04:38:56.161Z,8.4
2023-05-08T04:41:58.249Z,8.4
2023-05-08T04:45:00.131Z,9.7
2023-05-08T04:48:02.078Z,9.8
2023-05-08T04:51:04.254Z,9.9
2023-05-08T04:54:06.050Z,9
2023-05-08T04:57:07.964Z,8.3
2023-05-08T05:00:09.921Z,9.1
2023-05-08T05:03:11.905Z,9.5
2023-05-08T05:06:13.812Z,9.7
2023-05-08T05:09:15.779Z,10.5
2023-05-08T05:12:17.736Z,9
2023-05-08T05:15:19.766Z,11.5
2023-05-08T05:18:21.716Z,9.4
2023-05-08T05:21:23.656Z,9.1
2023-05-08T05:24:25.592Z,11.2
2023-05-08T05:27:27.553Z,11.7
2023-05-08T05:30:29.526Z,11
2023-05-08T05:33:31.509Z,10.3
2023-05-08T05:36:33.469Z,9.3
2023-05-08T05:39:35.447Z,10.6
2023-05-08T05:42:37.405Z,9.4
2023-05-08T05:45:39.377Z,11.5
2023-05-08T05:48:41.354Z,12.3
2023-05-08T05:51:43.323Z,10.9
2023-05-08T05:54:45.263Z,12
2023-05-08T05:57:47.232Z,11.1
2023-05-08T06:00:49.189Z,13.8
2023-05-08T06:03:51.245Z,11.2
2023-05-08T06:06:53.130Z,11.4
2023-05-08T06:09:55.081Z,12.7
2023-05-08T06:12:57.205Z,10.5
2023-05-08T06:15:59.036Z,10.7
2023-05-08T06:19:00.998Z,10.5
2023-05-08T06:22:02.943Z,11.6
2023-05-08T06:25:04.885Z,13.2
2023-05-08T06:28:06.888Z,9.2
2023-05-08T06:31:08.873Z,14
2023-05-08T06:34:10.838Z,14
2023-05-08T06:37:12.740Z,11.6
2023-05-08T06:40:14.694Z,10.3
2023-05-08T06:43:16.688Z,11.3
2023-05-08T06:46:18.649Z,10.8
2023-05-08T06:49:20.617Z,10.4
2023-05-08T06:52:22.571Z,9.7
2023-05-08T06:55:24.496Z,10.3
2023-05-08T06:58:26.457Z,11.5
2023-05-08T07:01:28.455Z,11.1
2023-05-08T07:04:32.165Z,13.2
2023-05-08T07:07:32.354Z,14
2023-05-08T07:10:34.296Z,11.1
2023-05-08T07:13:36.342Z,9.2
2023-05-08T07:16:38.322Z,12
2023-05-08T07:19:40.178Z,11.2
2023-05-08T07:22:42.122Z,10.3
2023-05-08T07:25:44.136Z,10.9
2023-05-08T07:28:46.065Z,11.8
2023-05-08T07:31:48.073Z,9.8
2023-05-08T07:34:49.987Z,9.6
2023-05-08T07:37:51.944Z,9.4
2023-05-08T07:40:53.897Z,9.3
2023-05-08T07:43:55.859Z,9.3
2023-05-08T07:46:57.865Z,13
2023-05-08T07:49:59.804Z,11.2
2023-05-08T07:53:01.744Z,10.6
2023-05-08T07:56:03.717Z,11.1
2023-05-08T07:59:05.666Z,12.1
2023-05-08T08:02:07.724Z,9.9
2023-05-08T08:05:09.637Z,11.1
2023-05-08T08:08:11.582Z,8.3
2023-05-08T08:11:13.534Z,11.8
2023-05-08T08:14:15.514Z,10.4
2023-05-08T08:17:17.530Z,11.1
2023-05-08T08:20:19.426Z,9.3
2023-05-08T08:23:21.396Z,11.8
2023-05-08T08:26:23.368Z,9.6
2023-05-08T08:29:25.514Z,8.3
2023-05-08T08:32:27.297Z,10.3
2023-05-08T08:35:29.285Z,10
2023-05-08T08:38:31.229Z,11.8
2023-05-08T08:41:33.158Z,10.5
2023-05-08T08:44:35.165Z,10.1
2023-05-08T08:47:37.196Z,9.7
2023-05-08T08:50:39.095Z,9.3
2023-05-08T08:53:41.077Z,11.3
2023-05-08T08:56:43.086Z,9
2023-05-08T08:59:45.015Z,8.9
2023-05-08T09:02:47.024Z,10.9
2023-05-08T09:05:48.913Z,8.3
2023-05-08T09:08:50.883Z,10.2
2023-05-08T09:11:52.858Z,7.3
2023-05-08T09:14:54.824Z,9.3
2023-05-08T09:17:56.838Z,8.1
2023-05-08T09:20:58.759Z,7.9
2023-05-08T09:24:00.719Z,8.2
2023-05-08T09:27:02.694Z,8.2
2023-05-08T09:30:04.778Z,8.5
2023-05-08T09:33:06.618Z,9.9
2023-05-08T09:36:08.548Z,9.5
2023-05-08T09:39:10.515Z,8
2023-05-08T09:42:12.479Z,8.5
2023-05-08T09:45:14.679Z,9.1
2023-05-08T09:48:16.444Z,11.4
2023-05-08T09:51:18.373Z,10.3
2023-05-08T09:54:20.365Z,10.1
2023-05-08T09:57:22.281Z,9.3
2023-05-08T10:00:24.253Z,10.7
2023-05-08T10:03:26.200Z,9.1
2023-05-08T10:06:28.174Z,9.7
2023-05-08T10:09:39.252Z,11
2023-05-08T10:12:32.078Z,10.5
2023-05-08T10:15:34.046Z,12.2
2023-05-08T10:18:36.031Z,11.3
2023-05-08T10:21:37.976Z,8.7
2023-05-08T10:24:39.987Z,11.3
2023-05-08T10:27:41.901Z,11.6
2023-05-08T10:30:43.938Z,11.4
2023-05-08T10:33:45.858Z,10.9
2023-05-08T10:36:47.844Z,11.3
2023-05-08T10:39:49.779Z,9.9
2023-05-08T10:42:51.705Z,9.8
2023-05-08T10:45:53.725Z,8.3
2023-05-08T10:48:55.675Z,10.4
2023-05-08T10:51:57.603Z,9.1
2023-05-08T10:54:59.568Z,10.6
2023-05-08T10:58:01.529Z,8.6
2023-05-08T11:01:03.988Z,9.9
2023-05-08T11:04:05.565Z,8.8
2023-05-08T11:07:07.392Z,8.7
2023-05-08T11:10:09.383Z,8.2
2023-05-08T11:13:11.416Z,9.2
2023-05-08T11:16:13.327Z,8.3
2023-05-08T11:19:15.269Z,11.7
2023-05-08T11:22:17.292Z,8.3
2023-05-08T11:25:19.192Z,8.8
2023-05-08T11:28:21.115Z,7.4
2023-05-08T11:31:23.112Z,8.1
2023-05-08T11:34:25.043Z,10.5
2023-05-08T11:37:27.003Z,11.7
2023-05-08T11:40:28.986Z,10.4
2023-05-08T11:43:30.957Z,10.8
2023-05-08T11:46:36.012Z,8.5
2023-05-08T11:49:37.943Z,8.2
2023-05-08T11:52:39.916Z,9.3
2023-05-08T11:55:41.914Z,7.8
2023-05-08T11:58:43.875Z,8
2023-05-08T12:01:48.628Z,10
2023-05-08T12:04:48.031Z,9.6
2023-05-08T12:07:49.694Z,9.4
2023-05-08T12:10:51.659Z,9.5
2023-05-08T12:13:53.624Z,7.3
2023-05-08T12:17:01.591Z,7.8
2023-05-08T12:20:03.462Z,12.3
2023-05-08T12:23:05.418Z,8.5
2023-05-08T12:26:07.381Z,8.9
2023-05-08T12:29:09.430Z,9.5
2023-05-08T12:32:11.397Z,8.7
2023-05-08T12:35:13.397Z,10.2
2023-05-08T12:38:15.289Z,9.5
2023-05-08T12:41:19.966Z,12.4
2023-05-08T12:44:21.933Z,9.3
2023-05-08T12:47:23.993Z,8.6
2023-05-08T12:50:25.895Z,10.4
2023-05-08T12:53:30.649Z,10.9
2023-05-08T12:56:32.623Z,9.5
2023-05-08T12:59:34.564Z,10.6
2023-05-08T13:02:41.639Z,10.2
2023-05-08T13:05:38.500Z,10.8
2023-05-08T13:08:40.494Z,8.2
2023-05-08T13:11:42.478Z,8.4
2023-05-08T13:14:44.389Z,9.3
2023-05-08T13:17:46.409Z,13.1
2023-05-08T13:20:48.511Z,11
2023-05-08T13:23:50.283Z,8.4
2023-05-08T13:26:52.300Z,7.9
2023-05-08T13:29:54.267Z,8
2023-05-08T13:32:56.332Z,9.7
2023-05-08T13:35:58.209Z,9.8
2023-05-08T13:39:00.235Z,10.7
2023-05-08T13:42:02.159Z,8.2
2023-05-08T13:45:04.125Z,9.5
2023-05-08T13:48:06.184Z,9.1
2023-05-08T13:51:08.068Z,9.6
2023-05-08T13:54:10.025Z,12.3
2023-05-08T13:57:12.026Z,11.1
2023-05-08T14:00:14.094Z,8.6
2023-05-08T14:03:16.057Z,10.8
2023-05-08T14:06:17.913Z,9.1
2023-05-08T14:09:19.910Z,7.6
2023-05-08T14:12:21.834Z,8.3
2023-05-08T14:15:26.996Z,8.3
2023-05-08T14:18:25.822Z,7.9
2023-05-08T14:21:27.827Z,6.8
2023-05-08T14:24:29.746Z,8.4
2023-05-08T14:27:31.700Z,8.2
2023-05-08T14:30:33.690Z,6.7
2023-05-08T14:33:35.696Z,8.2
2023-05-08T14:36:37.630Z,6.5
2023-05-08T14:39:39.605Z,8
2023-05-08T14:42:41.611Z,8.5
2023-05-08T14:45:43.521Z,6.9
2023-05-08T14:48:45.480Z,6.1
2023-05-08T14:51:47.428Z,7.7
2023-05-08T14:54:49.487Z,5.9
2023-05-08T14:57:51.350Z,6.7
2023-05-08T15:00:56.044Z,7.5
2023-05-08T15:03:58.076Z,7.6
2023-05-08T15:06:59.964Z,6.9
2023-05-08T15:10:01.969Z,8.3
2023-05-08T15:13:03.957Z,6
2023-05-08T15:16:05.885Z,6.5
2023-05-08T15:19:07.888Z,7
2023-05-08T15:22:09.851Z,5.7
2023-05-08T15:25:11.828Z,5.4
2023-05-08T15:28:13.741Z,5
2023-05-08T15:31:15.704Z,5.9
2023-05-08T15:34:17.657Z,7
2023-05-08T15:37:19.603Z,6.1
2023-05-08T15:40:21.566Z,7
2023-05-08T15:43:23.527Z,5.1
2023-05-08T15:46:25.575Z,5.9
2023-05-08T15:49:27.477Z,8.8
2023-05-08T15:52:29.424Z,7.4
2023-05-08T15:55:31.416Z,7.7
2023-05-08T15:58:33.396Z,7.5
2023-05-08T16:01:35.388Z,5.9
2023-05-08T16:04:37.411Z,7.3
2023-05-08T16:07:39.377Z,6.8
2023-05-08T16:10:41.375Z,9.2
2023-05-08T16:13:43.365Z,7.9
2023-05-08T16:16:45.374Z,8.2
2023-05-08T16:19:47.289Z,9.1
2023-05-08T16:22:49.232Z,7.4
2023-05-08T16:25:51.580Z,7
2023-05-08T16:28:53.248Z,8.1
2023-05-08T16:31:55.246Z,7.6
2023-05-08T16:34:57.214Z,8.5
2023-05-08T16:37:59.166Z,8.9
2023-05-08T16:41:01.139Z,8.7
2023-05-08T16:44:03.099Z,8.1
2023-05-08T16:47:05.214Z,8
2023-05-08T16:50:07.199Z,7
2023-05-08T16:53:09.047Z,7.5
2023-05-08T16:56:11.095Z,8.4
2023-05-08T16:59:13.002Z,8.8
2023-05-08T17:02:15.043Z,8.3
2023-05-08T17:05:16.969Z,10.2
2023-05-08T17:08:18.942Z,8.3
2023-05-08T17:11:20.904Z,6.8
2023-05-08T17:14:22.911Z,7.8
2023-05-08T17:17:24.889Z,9.7
2023-05-08T17:20:26.903Z,7.9
2023-05-08T17:23:28.859Z,9.3
2023-05-08T17:26:30.840Z,8.2
2023-05-08T17:29:32.831Z,10.9
2023-05-08T17:32:34.830Z,9.9
2023-05-08T17:35:36.745Z,12.1
2023-05-08T17:38:38.724Z,10.6
2023-05-08T17:41:40.671Z,10.2
2023-05-08T17:44:42.726Z,9.5
2023-05-08T17:47:44.697Z,9.9
2023-05-08T17:50:46.640Z,10.5
2023-05-08T17:53:48.600Z,11.5
2023-05-08T17:56:50.603Z,10
2023-05-08T17:59:52.575Z,12.3
2023-05-08T18:02:54.616Z,9
2023-05-08T18:05:56.530Z,7.9
2023-05-08T18:08:58.536Z,11
2023-05-08T18:12:00.454Z,9.1
2023-05-08T18:15:02.423Z,10.9
2023-05-08T18:18:04.463Z,10.6
2023-05-08T18:21:06.400Z,10.3
2023-05-08T18:24:08.654Z,9.9
2023-05-08T18:27:10.309Z,10.4
2023-05-08T18:30:12.394Z,10.7
2023-05-08T18:33:14.261Z,9.7
2023-05-08T18:36:16.219Z,7.9
2023-05-08T18:39:18.194Z,8.6
2023-05-08T18:42:20.177Z,9.9
2023-05-08T18:45:22.114Z,11.3
2023-05-08T18:48:24.063Z,10.4
2023-05-08T18:51:26.052Z,9.7
2023-05-08T18:54:28.003Z,10
2023-05-08T18:57:29.965Z,9.7
2023-05-08T19:00:31.973Z,7.8
2023-05-08T19:03:33.991Z,11.2
2023-05-08T19:06:35.924Z,11.8
2023-05-08T19:09:37.898Z,9.6
2023-05-08T19:12:39.836Z,11.1
2023-05-08T19:15:41.830Z,9.1
2023-05-08T19:18:43.840Z,8
2023-05-08T19:21:45.760Z,10.6
2023-05-08T19:24:47.806Z,9.4
2023-05-08T19:27:49.663Z,10.7
2023-05-08T19:30:51.605Z,11.7
2023-05-08T19:33:53.557Z,10
2023-05-08T19:36:55.547Z,11.1
2023-05-08T19:39:57.519Z,8.6
2023-05-08T19:42:59.470Z,11
2023-05-08T19:46:04.183Z,10.1
2023-05-08T19:49:06.171Z,9.4
2023-05-08T19:52:08.253Z,11.3
2023-05-08T19:55:10.227Z,11.6
2023-05-08T19:58:12.188Z,10.4
2023-05-08T20:01:14.156Z,9.2
2023-05-08T20:04:16.118Z,10.5
2023-05-08T20:07:18.059Z,10.6
2023-05-08T20:10:20.063Z,14.4
2023-05-08T20:13:22.052Z,11.2
2023-05-08T20:16:23.998Z,10.9
2023-05-08T20:19:25.957Z,11.4
2023-05-08T20:22:27.905Z,14.4
2023-05-08T20:25:29.843Z,13.4
2023-05-08T20:28:31.823Z,11.7
2023-05-08T20:31:33.782Z,10.2
2023-05-08T20:34:35.769Z,11.9
2023-05-08T20:37:37.686Z,10.1
2023-05-08T20:40:39.645Z,14
2023-05-08T20:43:41.599Z,11.5
2023-05-08T20:46:43.604Z,15
2023-05-08T20:49:45.533Z,15.5
2023-05-08T20:52:47.476Z,14.7
2023-05-08T20:55:49.452Z,13.7
2023-05-08T20:58:51.528Z,13.8
2023-05-08T21:01:53.384Z,13.7
2023-05-08T21:04:55.371Z,13.6
2023-05-08T21:07:57.317Z,13.8
2023-05-08T21:10:59.254Z,14.1
2023-05-08T21:14:01.219Z,12.7
2023-05-08T21:17:03.318Z,13.7
2023-05-08T21:20:05.171Z,12.3
2023-05-08T21:23:07.116Z,14
2023-05-08T21:26:09.072Z,12.3
2023-05-08T21:29:11.068Z,13.1
2023-05-08T21:32:13.017Z,13.8
2023-05-08T21:35:15.138Z,13.7
2023-05-08T21:38:16.992Z,13.3
2023-05-08T21:41:18.952Z,11.4
2023-05-08T21:44:20.867Z,15.7
2023-05-08T21:47:22.859Z,15.9
2023-05-08T21:50:24.773Z,16.5
2023-05-08T21:53:26.740Z,18.4
2023-05-08T21:56:28.709Z,18.2
2023-05-08T21:59:30.677Z,16.1
2023-05-08T22:02:32.720Z,15.9
2023-05-08T22:05:34.609Z,16.2
2023-05-08T22:08:36.559Z,16.7
2023-05-08T22:11:38.526Z,17
2023-05-08T22:14:40.516Z,18.3
2023-05-08T22:17:42.497Z,17.4
2023-05-08T22:20:44.432Z,18
2023-05-08T22:23:46.420Z,18.3
2023-05-08T22:26:48.383Z,16
2023-05-08T22:29:50.330Z,16.8
2023-05-08T22:32:52.293Z,16.5
2023-05-08T22:35:54.238Z,18.2
2023-05-08T22:38:56.206Z,14.1
2023-05-08T22:41:58.187Z,15.8
2023-05-08T22:45:00.222Z,14.7
2023-05-08T22:48:02.170Z,13.6
2023-05-08T22:51:04.092Z,14.1
2023-05-08T22:54:06.078Z,16.7
2023-05-08T22:57:08.037Z,18.1
2023-05-08T23:00:10.007Z,16.3
2023-05-08T23:03:11.979Z,14.1
2023-05-08T23:06:14.144Z,15.5
2023-05-08T23:09:15.901Z,18.5
2023-05-08T23:12:17.877Z,17.8
2023-05-08T23:15:19.826Z,14.8
2023-05-08T23:18:21.803Z,14.6
2023-05-08T23:21:23.751Z,13.4
2023-05-08T23:24:25.716Z,14.2
2023-05-08T23:27:27.714Z,15.5
2023-05-08T23:30:29.671Z,17.8
2023-05-08T23:33:31.651Z,15.2
2023-05-08T23:36:33.582Z,15.8
2023-05-08T23:39:35.580Z,18.2
2023-05-08T23:42:37.707Z,16.3
2023-05-08T23:45:39.488Z,18.4
2023-05-08T23:48:41.497Z,14.2
2023-05-08T23:51:43.503Z,21.1
2023-05-08T23:54:45.457Z,15.3
2023-05-08T23:57:47.412Z,14.4
